Time;durP1;ratioP1;P1;durP2;ratioP2;P2;SDS_P1;SDS_P2;PMS_P1;PMS_P2;Temp;Humidity;BMP_temperature;BMP_pressure;BME280_temperature;BME280_humidity;BME280_pressure;Samples;Min_cycle;Max_cycle;Signal;HPM_P1;HPM_P2
2022/08/05 00:01:30;;;;;;;;;;;;;;;13.70;100.00;101254.44;5053725;28;19929;-84
2022/08/05 00:04:02;;;;;;;;;;;;;;;13.60;100.00;101259.25;5044550;28;19929;-85
2022/08/05 00:06:30;;;;;;;;;;;;;;;13.59;100.00;101258.38;5053393;28;19929;-84
2022/08/05 00:08:59;;;;;;;;;;;;;;;13.50;100.00;101261.41;5062234;28;20404;-84
2022/08/05 00:11:26;;;;;;;;;;;;;;;13.42;100.00;101269.63;5052132;28;19925;-85
2022/08/05 00:14:01;;;;;;;;;;;;;;;13.43;100.00;101276.56;5060950;28;19933;-84
2022/08/05 00:16:37;;;;;;;;;;;;;;;12.97;100.00;101278.38;5041761;28;19940;-84
2022/08/05 00:19:19;;;;;;;;;;;;;;;12.68;100.00;101271.63;5040676;28;19925;-84
2022/08/05 00:21:47;;;;;;;;;;;;;;;12.82;100.00;101273.69;5055573;28;19925;-84
2022/08/05 00:24:14;;;;;;;;;;;;;;;12.86;100.00;101276.16;5034175;28;19933;-84
2022/08/05 00:26:44;;;;;;;;;;;;;;;13.02;100.00;101281.69;5045418;28;20326;-85
2022/08/05 00:29:18;;;;;;;;;;;;;;;13.06;100.00;101283.25;5053518;28;19928;-84
2022/08/05 00:31:51;;;;;;;;;;;;;;;12.95;100.00;101282.84;5053383;28;19925;-84
2022/08/05 00:34:36;;;;;;;;;;;;;;;12.76;100.00;101287.94;5052361;28;19925;-85
2022/08/05 00:37:23;;;;;;;;;;;;;;;12.77;100.00;101288.81;5042122;28;19932;-84
2022/08/05 00:39:50;;;;;;;;;;;;;;;12.79;100.00;101286.97;5043248;28;19925;-85
2022/08/05 00:42:34;;;;;;;;;;;;;;;12.86;100.00;101283.19;5034706;28;19925;-85
2022/08/05 00:45:03;;;;;;;;;;;;;;;12.85;100.00;101284.09;5050782;28;19924;-84
2022/08/05 00:47:34;;;;;;;;;;;;;;;12.90;100.00;101284.78;5035856;28;20027;-85
2022/08/05 00:50:21;;;;;;;;;;;;;;;12.70;100.00;101289.03;5046020;28;19924;-84
2022/08/05 00:52:50;;;;;;;;;;;;;;;12.80;100.00;101286.03;5051645;28;19947;-85
2022/08/05 00:55:18;;;;;;;;;;;;;;;12.88;100.00;101291.88;5038135;28;19928;-84
2022/08/05 00:57:49;;;;;;;;;;;;;;;12.97;100.00;101285.41;5036202;28;19925;-84
2022/08/05 01:00:24;;;;;;;;;;;;;;;12.96;100.00;101283.69;5052316;28;20429;-84
2022/08/05 01:02:51;;;;;;;;;;;;;;;12.94;100.00;101285.53;5052223;28;19924;-84
2022/08/05 01:05:18;;;;;;;;;;;;;;;13.03;100.00;101283.41;5051087;28;19925;-84
2022/08/05 01:07:44;;;;;;;;;;;;;;;12.98;100.00;101287.09;5051537;28;19924;-85
2022/08/05 01:10:36;;;;;;;;;;;;;;;12.84;100.00;101285.88;5044775;28;19932;-84
2022/08/05 01:13:06;;;;;;;;;;;;;;;12.78;100.00;101277.38;5034348;28;20286;-84
2022/08/05 01:15:47;;;;;;;;;;;;;;;12.89;100.00;101277.81;5033842;28;20049;-85
2022/08/05 01:18:18;;;;;;;;;;;;;;;12.86;100.00;101281.41;5034299;28;19924;-84
2022/08/05 01:21:05;;;;;;;;;;;;;;;12.89;100.00;101278.69;5050510;28;19925;-85
2022/08/05 01:23:38;;;;;;;;;;;;;;;12.89;100.00;101276.06;5039476;28;19925;-85
2022/08/05 01:26:25;;;;;;;;;;;;;;;12.88;100.00;101274.31;5045818;28;19972;-84
2022/08/05 01:29:05;;;;;;;;;;;;;;;12.82;100.00;101271.94;5052022;28;20341;-84
2022/08/05 01:31:34;;;;;;;;;;;;;;;12.82;100.00;101276.31;5051256;28;19929;-85
2022/08/05 01:34:19;;;;;;;;;;;;;;;12.84;100.00;101274.53;5051753;28;20382;-84
2022/08/05 01:36:48;;;;;;;;;;;;;;;12.82;100.00;101276.31;5034330;28;19971;-84
2022/08/05 01:39:15;;;;;;;;;;;;;;;12.77;100.00;101275.69;5052398;28;19931;-84
2022/08/05 01:42:02;;;;;;;;;;;;;;;12.82;100.00;101278.94;5037309;28;20355;-85
2022/08/05 01:44:29;;;;;;;;;;;;;;;12.85;100.00;101277.06;5051695;28;20413;-84
2022/08/05 01:47:01;;;;;;;;;;;;;;;12.99;100.00;101275.69;5051188;28;20346;-84
2022/08/05 01:49:31;;;;;;;;;;;;;;;13.01;100.00;101284.38;5050281;28;20019;-85
2022/08/05 01:52:19;;;;;;;;;;;;;;;13.06;100.00;101279.78;5037173;28;19928;-85
2022/08/05 01:55:07;;;;;;;;;;;;;;;13.18;100.00;101274.03;5050467;28;19928;-85
2022/08/05 01:57:38;;;;;;;;;;;;;;;13.30;100.00;101275.34;5049871;28;20020;-85
2022/08/05 02:00:26;;;;;;;;;;;;;;;13.23;100.00;101277.34;5050974;28;19924;-85
2022/08/05 02:03:03;;;;;;;;;;;;;;;13.11;100.00;101277.84;5035049;28;19931;-85
2022/08/05 02:05:31;;;;;;;;;;;;;;;13.24;100.00;101270.31;5048767;28;19933;-84
2022/08/05 02:08:01;;;;;;;;;;;;;;;13.32;100.00;101270.06;5033816;28;20332;-85
2022/08/05 02:10:31;;;;;;;;;;;;;;;13.36;100.00;101275.09;5044598;28;20367;-85
2022/08/05 02:13:12;;;;;;;;;;;;;;;13.10;100.00;101274.38;5038428;28;19924;-85
2022/08/05 02:16:05;;;;;;;;;;;;;;;13.28;100.00;101277.19;5038361;28;20450;-85
2022/08/05 02:18:41;;;;;;;;;;;;;;;13.36;100.00;101276.88;5053818;28;20003;-85
2022/08/05 02:21:12;;;;;;;;;;;;;;;13.41;100.00;101270.50;5040301;28;19924;-85
2022/08/05 02:23:42;;;;;;;;;;;;;;;13.45;100.00;101263.34;5062764;28;20418;-84
2022/08/05 02:26:12;;;;;;;;;;;;;;;13.38;100.00;101273.25;5054990;28;19952;-85
2022/08/05 02:28:43;;;;;;;;;;;;;;;13.35;100.00;101256.75;5046142;28;20024;-85
2022/08/05 02:31:15;;;;;;;;;;;;;;;13.35;100.00;101256.75;5038309;28;20423;-85
2022/08/05 02:33:48;;;;;;;;;;;;;;;13.38;100.00;101257.47;5038044;28;20015;-85
2022/08/05 02:36:24;;;;;;;;;;;;;;;13.34;100.00;101255.91;5055345;28;20015;-85
2022/08/05 02:38:54;;;;;;;;;;;;;;;13.25;100.00;101257.09;5054434;28;19925;-85
2022/08/05 02:41:24;;;;;;;;;;;;;;;13.28;100.00;101262.25;5055385;28;19925;-85
2022/08/05 02:44:09;;;;;;;;;;;;;;;13.23;100.00;101260.72;5052808;28;19932;-85
2022/08/05 02:46:44;;;;;;;;;;;;;;;13.08;100.00;101257.78;5037496;28;19925;-85
2022/08/05 02:49:27;;;;;;;;;;;;;;;12.80;100.00;101259.78;5047903;28;20015;-84
2022/08/05 02:52:23;;;;;;;;;;;;;;;13.02;100.00;101258.03;5039455;28;19924;-85
2022/08/05 02:54:56;;;;;;;;;;;;;;;13.05;100.00;101255.28;5037808;28;19924;-84
2022/08/05 02:57:28;;;;;;;;;;;;;;;12.89;100.00;101255.03;5054785;28;19925;-85
2022/08/05 03:00:15;;;;;;;;;;;;;;;12.94;100.00;101257.47;5039747;28;19924;-85
2022/08/05 03:02:43;;;;;;;;;;;;;;;13.08;100.00;101257.78;5055039;28;19951;-85
2022/08/05 03:05:11;;;;;;;;;;;;;;;13.17;100.00;101256.53;5044203;28;19978;-84
2022/08/05 03:07:41;;;;;;;;;;;;;;;13.21;100.00;101257.28;5054490;28;19933;-85
2022/08/05 03:10:28;;;;;;;;;;;;;;;13.27;100.00;101257.03;5049822;28;19924;-84
2022/08/05 03:12:54;;;;;;;;;;;;;;;13.30;100.00;101257.78;5042850;28;19929;-84
2022/08/05 03:15:21;;;;;;;;;;;;;;;13.35;100.00;101260.25;5053921;28;19967;-84
2022/08/05 03:17:53;;;;;;;;;;;;;;;13.29;100.00;101256.06;5041967;28;19936;-84
2022/08/05 03:20:22;;;;;;;;;;;;;;;13.20;100.00;101255.59;5054042;28;20019;-84
2022/08/05 03:22:50;;;;;;;;;;;;;;;13.22;100.00;101251.97;5044539;28;19986;-84
2022/08/05 03:25:18;;;;;;;;;;;;;;;13.19;100.00;101253.84;5052308;28;19975;-84
2022/08/05 03:28:09;;;;;;;;;;;;;;;13.24;100.00;101259.78;5043702;28;19935;-84
2022/08/05 03:30:43;;;;;;;;;;;;;;;13.26;100.00;101255.31;5042639;28;19932;-84
2022/08/05 03:33:12;;;;;;;;;;;;;;;13.33;100.00;101259.44;5066914;28;19935;-84
2022/08/05 03:35:40;;;;;;;;;;;;;;;13.30;100.00;101256.94;5062818;28;19935;-84
2022/08/05 03:38:09;;;;;;;;;;;;;;;13.27;100.00;101250.00;5064920;28;19932;-84
2022/08/05 03:40:43;;;;;;;;;;;;;;;13.25;100.00;101243.97;5068339;28;19924;-84
2022/08/05 03:43:14;;;;;;;;;;;;;;;13.21;100.00;101255.53;5065839;28;20351;-84
2022/08/05 03:46:01;;;;;;;;;;;;;;;13.17;100.00;101248.66;5078905;28;19931;-84
2022/08/05 03:48:28;;;;;;;;;;;;;;;13.18;100.00;101249.53;5065811;28;19930;-84
2022/08/05 03:51:12;;;;;;;;;;;;;;;13.22;100.00;101254.59;5085138;28;19924;-84
2022/08/05 03:54:04;;;;;;;;;;;;;;;13.20;100.00;101264.31;5078442;28;19924;-84
2022/08/05 03:56:54;;;;;;;;;;;;;;;13.20;100.00;101255.59;5067031;28;19928;-84
2022/08/05 03:59:32;;;;;;;;;;;;;;;13.28;100.00;101259.63;5078157;28;19925;-84
2022/08/05 04:02:21;;;;;;;;;;;;;;;13.31;100.00;101256.03;5067406;28;20292;-84
2022/08/05 04:05:08;;;;;;;;;;;;;;;13.15;100.00;101258.38;5079171;28;19924;-84
2022/08/05 04:07:38;;;;;;;;;;;;;;;13.05;100.00;101264.91;5084179;28;20363;-84
2022/08/05 04:10:24;;;;;;;;;;;;;;;12.79;100.00;101266.81;5079978;28;20372;-85
2022/08/05 04:12:53;;;;;;;;;;;;;;;12.60;100.00;101266.63;5079276;28;19928;-84
2022/08/05 04:15:25;;;;;;;;;;;;;;;12.27;100.00;101266.09;5080821;28;20379;-84
2022/08/05 04:17:53;;;;;;;;;;;;;;;12.09;100.00;101265.88;5064588;28;20328;-85
2022/08/05 04:20:25;;;;;;;;;;;;;;;11.98;100.00;101268.00;5077854;28;19928;-84
2022/08/05 04:22:52;;;;;;;;;;;;;;;12.30;100.00;101271.25;5066978;28;19946;-84
2022/08/05 04:25:18;;;;;;;;;;;;;;;12.38;100.00;101276.22;5064386;28;19930;-83
2022/08/05 04:28:04;;;;;;;;;;;;;;;12.42;100.00;101270.81;5082211;28;19924;-84
2022/08/05 04:30:37;;;;;;;;;;;;;;;12.26;100.00;101277.53;5067441;28;19982;-84
2022/08/05 04:33:05;;;;;;;;;;;;;;;12.18;100.00;101285.66;5061208;28;19973;-84
2022/08/05 04:35:32;;;;;;;;;;;;;;;12.20;100.00;101285.63;5052154;28;20438;-84
2022/08/05 04:38:19;;;;;;;;;;;;;;;12.23;100.00;101285.53;5038233;28;19924;-84
2022/08/05 04:40:46;;;;;;;;;;;;;;;12.32;100.00;101291.31;5046513;28;19932;-85
2022/08/05 04:43:16;;;;;;;;;;;;;;;12.34;100.00;101292.09;5052640;28;19943;-84
2022/08/05 04:45:47;;;;;;;;;;;;;;;12.33;100.00;101290.38;5035683;28;19925;-84
2022/08/05 04:48:21;;;;;;;;;;;;;;;12.27;100.00;101287.13;5036708;28;19929;-84
2022/08/05 04:50:53;;;;;;;;;;;;;;;12.32;100.00;101291.31;5035662;28;19964;-84
2022/08/05 04:53:36;;;;;;;;;;;;;;;12.31;100.00;101297.47;5037548;28;20569;-84
2022/08/05 04:56:05;;;;;;;;;;;;;;;12.47;100.00;101291.66;5035119;28;20008;-84
2022/08/05 04:58:52;;;;;;;;;;;;;;;12.54;100.00;101293.16;5051664;28;19929;-84
2022/08/05 05:01:18;;;;;;;;;;;;;;;12.52;100.00;101300.25;5052811;28;20023;-84
2022/08/05 05:04:05;;;;;;;;;;;;;;;12.54;100.00;101296.63;5037149;28;20367;-85
2022/08/05 05:06:32;;;;;;;;;;;;;;;12.42;100.00;101304.09;5034394;28;19925;-84
2022/08/05 05:09:10;;;;;;;;;;;;;;;12.49;100.00;101309.06;5035908;28;20247;-84
2022/08/05 05:11:43;;;;;;;;;;;;;;;12.43;100.00;101304.06;5050843;28;19931;-84
2022/08/05 05:14:21;;;;;;;;;;;;;;;12.42;100.00;101312.84;5037752;28;19928;-84
2022/08/05 05:16:58;;;;;;;;;;;;;;;12.50;100.00;101313.41;5035936;28;19932;-84
2022/08/05 05:19:24;;;;;;;;;;;;;;;12.44;100.00;101318.88;5044370;28;19943;-85
2022/08/05 05:22:02;;;;;;;;;;;;;;;12.38;100.00;101316.50;5051925;28;19925;-84
2022/08/05 05:24:48;;;;;;;;;;;;;;;12.46;100.00;101310.94;5036562;28;20417;-85
2022/08/05 05:27:31;;;;;;;;;;;;;;;12.47;100.00;101315.31;5035618;28;19931;-84
2022/08/05 05:30:07;;;;;;;;;;;;;;;12.52;100.00;101321.25;5051200;28;19925;-84
2022/08/05 05:32:54;;;;;;;;;;;;;;;12.54;100.00;101322.03;5037737;28;19925;-84
2022/08/05 05:35:21;;;;;;;;;;;;;;;12.68;100.00;101317.13;5033763;28;19931;-84
2022/08/05 05:37:49;;;;;;;;;;;;;;;12.57;100.00;101319.31;5052604;28;19925;-84
2022/08/05 05:40:28;;;;;;;;;;;;;;;12.58;100.00;101323.63;5037725;28;19947;-84
2022/08/05 05:42:55;;;;;;;;;;;;;;;12.74;100.00;101323.94;5052289;28;20007;-85
2022/08/05 05:45:22;;;;;;;;;;;;;;;12.67;100.00;101323.28;5034545;28;19924;-85
2022/08/05 05:47:51;;;;;;;;;;;;;;;12.71;100.00;101331.91;5063501;28;19929;-84
2022/08/05 05:50:34;;;;;;;;;;;;;;;12.84;100.00;101325.31;5052213;28;20347;-84
2022/08/05 05:53:10;;;;;;;;;;;;;;;12.91;100.00;101329.41;5065307;28;19928;-84
2022/08/05 05:55:48;;;;;;;;;;;;;;;13.02;100.00;101334.25;5049098;28;19925;-83
2022/08/05 05:58:26;;;;;;;;;;;;;;;12.95;100.00;101338.03;5033246;28;20495;-84
2022/08/05 06:00:57;;;;;;;;;;;;;;;13.04;100.00;101336.84;5051634;28;19969;-85
2022/08/05 06:03:38;;;;;;;;;;;;;;;13.20;100.00;101342.34;5057931;28;19929;-85
2022/08/05 06:06:24;;;;;;;;;;;;;;;13.21;100.00;101350.19;5037345;28;19932;-84
2022/08/05 06:08:58;;;;;;;;;;;;;;;13.03;100.00;101354.38;5053592;28;19932;-85
2022/08/05 06:11:24;;;;;;;;;;;;;;;13.17;100.00;101363.50;5051863;28;19932;-85
2022/08/05 06:13:54;;;;;;;;;;;;;;;13.19;100.00;101356.41;5051299;28;19986;-84
2022/08/05 06:16:21;;;;;;;;;;;;;;;13.32;100.00;101355.06;5051527;28;20015;-84
2022/08/05 06:18:57;;;;;;;;;;;;;;;13.80;100.00;101356.63;5049666;28;19931;-84
2022/08/05 06:21:27;;;;;;;;;;;;;;;13.89;100.00;101367.72;5050387;28;19931;-84
2022/08/05 06:24:02;;;;;;;;;;;;;;;13.94;100.00;101360.47;5050573;28;20007;-85
2022/08/05 06:26:29;;;;;;;;;;;;;;;13.90;100.00;101367.66;5034563;28;19929;-83
2022/08/05 06:28:59;;;;;;;;;;;;;;;13.65;100.00;101367.78;5066052;28;19971;-84
2022/08/05 06:31:31;;;;;;;;;;;;;;;13.64;100.00;101371.34;5039025;28;19928;-84
2022/08/05 06:33:59;;;;;;;;;;;;;;;13.84;100.00;101365.25;5033830;28;19925;-84
2022/08/05 06:36:31;;;;;;;;;;;;;;;13.83;100.00;101369.66;5035466;28;20278;-85
2022/08/05 06:39:18;;;;;;;;;;;;;;;14.08;100.00;101368.66;5054672;28;20327;-85
2022/08/05 06:41:48;;;;;;;;;;;;;;;15.02;100.00;101363.69;5034782;28;19924;-84
2022/08/05 06:44:14;;;;;;;;;;;;;;;15.15;100.00;101370.94;5058529;28;20015;-85
2022/08/05 06:46:43;;;;;;;;;;;;;;;15.31;100.00;101368.44;5034621;28;20363;-84
2022/08/05 06:49:09;;;;;;;;;;;;;;;15.09;100.00;101373.03;5050576;28;19932;-84
2022/08/05 06:51:37;;;;;;;;;;;;;;;15.11;100.00;101372.03;5056224;28;19929;-85
2022/08/05 06:54:06;;;;;;;;;;;;;;;15.33;100.00;101373.66;5047220;28;19925;-85
2022/08/05 06:56:37;;;;;;;;;;;;;;;16.13;100.00;101377.72;5025612;28;19990;-84
2022/08/05 06:59:04;;;;;;;;;;;;;;;16.33;100.00;101377.53;5034483;28;19925;-85
2022/08/05 07:01:35;;;;;;;;;;;;;;;16.54;100.00;101368.56;5056353;28;19932;-85
2022/08/05 07:04:02;;;;;;;;;;;;;;;17.13;95.45;101369.81;5055747;28;19929;-85
2022/08/05 07:06:29;;;;;;;;;;;;;;;17.67;92.84;101376.53;5034857;28;19931;-85
2022/08/05 07:08:57;;;;;;;;;;;;;;;17.94;83.72;101374.13;5037599;28;19935;-84
2022/08/05 07:11:24;;;;;;;;;;;;;;;17.58;83.63;101372.63;5053467;28;19929;-85
2022/08/05 07:16:48;;;;;;;;;;;;;;;17.12;86.62;101377.84;5053234;28;19931;-85
2022/08/05 07:19:34;;;;;;;;;;;;;;;16.94;87.60;101385.84;5059435;28;19931;-84
2022/08/05 07:22:21;;;;;;;;;;;;;;;16.41;91.81;101389.50;5046861;28;20367;-85
2022/08/05 07:24:58;;;;;;;;;;;;;;;17.07;97.32;101388.69;5039333;28;19925;-85
2022/08/05 07:27:46;;;;;;;;;;;;;;;17.43;90.65;101385.78;5053445;28;19935;-84
2022/08/05 07:30:25;;;;;;;;;;;;;;;17.45;89.10;101388.34;5054399;28;20011;-84
2022/08/05 07:32:58;;;;;;;;;;;;;;;17.83;87.46;101386.16;5040054;28;19925;-85
2022/08/05 07:35:25;;;;;;;;;;;;;;;18.42;83.64;101382.75;5060207;28;19928;-84
2022/08/05 07:38:12;;;;;;;;;;;;;;;18.30;85.44;101389.63;5049611;28;20283;-84
2022/08/05 07:40:58;;;;;;;;;;;;;;;18.50;80.44;101385.81;5052866;28;19925;-85
2022/08/05 07:43:45;;;;;;;;;;;;;;;19.23;77.21;101381.31;5052682;28;19929;-85
2022/08/05 07:46:12;;;;;;;;;;;;;;;19.11;77.73;101396.25;5044713;28;20808;-84
2022/08/05 07:48:51;;;;;;;;;;;;;;;19.06;75.72;101393.03;5041287;28;19939;-84
2022/08/05 07:51:30;;;;;;;;;;;;;;;19.19;77.35;101393.94;5061906;28;19964;-85
2022/08/05 07:54:06;;;;;;;;;;;;;;;19.43;74.75;101388.03;5043480;28;20016;-86
2022/08/05 07:56:35;;;;;;;;;;;;;;;19.14;74.97;101380.97;5052704;28;19960;-86
2022/08/05 07:59:21;;;;;;;;;;;;;;;19.19;75.60;101385.97;5041983;28;19925;-87
2022/08/05 08:02:06;;;;;;;;;;;;;;;19.39;70.33;101395.34;5030419;28;19931;-87
2022/08/05 08:04:43;;;;;;;;;;;;;;;18.19;70.44;101392.94;5059581;28;20441;-87
2022/08/05 08:07:11;;;;;;;;;;;;;;;17.60;76.94;101403.38;5036394;28;19979;-86
2022/08/05 08:09:37;;;;;;;;;;;;;;;17.65;80.37;101403.09;5039697;28;19954;-86
2022/08/05 08:12:04;;;;;;;;;;;;;;;17.68;81.35;101404.72;5044924;28;19932;-86
2022/08/05 08:14:51;;;;;;;;;;;;;;;18.13;77.45;101403.03;5040761;28;19929;-85
2022/08/05 08:17:17;;;;;;;;;;;;;;;18.19;75.39;101395.59;5059739;28;20473;-86
2022/08/05 08:19:47;;;;;;;;;;;;;;;18.64;74.73;101407.97;5059665;28;19925;-86
2022/08/05 08:22:34;;;;;;;;;;;;;;;18.97;71.76;101405.06;5066629;28;19925;-86
2022/08/05 08:25:00;;;;;;;;;;;;;;;19.10;71.60;101405.16;5036951;28;20382;-86
2022/08/05 08:27:29;;;;;;;;;;;;;;;19.28;68.38;101400.47;5054300;28;19929;-88
2022/08/05 08:30:10;;;;;;;;;;;;;;;19.50;66.17;101407.94;5053179;28;19937;-87
2022/08/05 08:32:57;;;;;;;;;;;;;;;20.14;65.65;101412.63;5030484;28;19936;-86
2022/08/05 08:35:28;;;;;;;;;;;;;;;20.67;63.90;101411.66;5054880;28;19931;-87
2022/08/05 08:38:06;;;;;;;;;;;;;;;20.39;62.79;101414.47;5058524;28;19924;-87
2022/08/05 08:40:34;;;;;;;;;;;;;;;20.27;61.10;101417.03;5035300;28;20024;-87
2022/08/05 08:43:02;;;;;;;;;;;;;;;19.32;62.10;101416.13;5054663;28;20367;-86
2022/08/05 08:45:49;;;;;;;;;;;;;;;19.80;60.60;101421.03;5044181;28;19940;-87
2022/08/05 08:48:17;;;;;;;;;;;;;;;20.10;60.29;101419.97;5051830;28;19925;-87
2022/08/05 08:51:04;;;;;;;;;;;;;;;19.39;60.00;101427.22;5052049;28;19936;-87
2022/08/05 08:53:52;;;;;;;;;;;;;;;19.66;62.12;101421.91;5040698;28;19929;-86
2022/08/05 08:56:20;;;;;;;;;;;;;;;20.00;58.82;101427.69;5056756;28;20279;-86
2022/08/05 08:58:47;;;;;;;;;;;;;;;19.96;59.38;101428.84;5052092;28;20032;-87
2022/08/05 09:01:16;;;;;;;;;;;;;;;20.01;57.24;101431.19;5042364;28;19924;-84
2022/08/05 09:03:49;;;;;;;;;;;;;;;20.33;58.79;101430.84;5051638;28;19925;-85
2022/08/05 09:06:21;;;;;;;;;;;;;;;20.46;58.47;101434.38;5042667;28;19936;-87
2022/08/05 09:08:53;;;;;;;;;;;;;;;20.21;57.16;101428.06;5053742;28;19925;-87
2022/08/05 09:11:20;;;;;;;;;;;;;;;19.45;57.98;101421.50;5046782;28;20023;-87
2022/08/05 09:14:07;;;;;;;;;;;;;;;19.52;57.67;101422.81;5048962;28;19925;-85
2022/08/05 09:16:54;;;;;;;;;;;;;;;19.80;57.74;101428.19;5043453;28;19925;-87
2022/08/05 09:19:23;;;;;;;;;;;;;;;20.47;56.78;101425.47;5057594;28;19975;-86
2022/08/05 09:21:53;;;;;;;;;;;;;;;21.34;56.12;101422.97;5044220;28;19925;-87
2022/08/05 09:24:41;;;;;;;;;;;;;;;21.38;54.97;101427.09;5044799;28;19929;-86
2022/08/05 09:27:08;;;;;;;;;;;;;;;21.00;53.68;101422.69;5039164;28;19929;-86
2022/08/05 09:29:44;;;;;;;;;;;;;;;20.43;53.44;101432.78;5047581;28;19947;-86
2022/08/05 09:32:13;;;;;;;;;;;;;;;20.32;54.58;101439.78;5057651;28;20391;-87
2022/08/05 09:35:07;;;;;;;;;;;;;;;19.64;56.46;101429.13;5045204;28;19928;-86
2022/08/05 09:37:34;;;;;;;;;;;;;;;19.72;55.52;101428.63;5042206;28;19986;-85
2022/08/05 09:40:31;;;;;;;;;;;;;;;19.10;55.67;101431.69;5054175;28;19924;-87
2022/08/05 09:42:58;;;;;;;;;;;;;;;19.03;56.92;101427.72;5051314;28;19925;-85
2022/08/05 09:45:35;;;;;;;;;;;;;;;19.23;57.58;101423.81;5034817;28;20394;-85
2022/08/05 09:48:25;;;;;;;;;;;;;;;19.35;57.29;101428.34;5053263;28;19928;-86
2022/08/05 09:50:58;;;;;;;;;;;;;;;19.62;57.68;101425.72;5039948;28;20321;-86
2022/08/05 09:53:26;;;;;;;;;;;;;;;19.75;57.02;101424.97;5040330;28;19929;-86
2022/08/05 09:56:12;;;;;;;;;;;;;;;20.16;56.70;101418.69;5044855;28;19924;-87
2022/08/05 09:58:39;;;;;;;;;;;;;;;19.86;56.02;101428.59;5051289;28;19925;-86
2022/08/05 10:01:11;;;;;;;;;;;;;;;19.60;56.65;101429.41;5049461;28;20019;-86
2022/08/05 10:04:13;;;;;;;;;;;;;;;20.10;58.52;101426.13;5042671;28;19929;-85
2022/08/05 10:06:53;;;;;;;;;;;;;;;19.84;57.00;101432.31;5040413;28;19929;-85
2022/08/05 10:09:25;;;;;;;;;;;;;;;18.93;57.36;101435.41;5045158;28;19954;-86
2022/08/05 10:12:06;;;;;;;;;;;;;;;18.66;59.43;101438.78;5030162;28;19931;-85
2022/08/05 10:14:53;;;;;;;;;;;;;;;18.86;59.87;101431.44;5047084;28;19935;-85
2022/08/05 10:17:19;;;;;;;;;;;;;;;19.46;60.11;101428.53;5034008;28;20551;-85
2022/08/05 10:20:06;;;;;;;;;;;;;;;19.55;59.17;101437.69;5049867;28;19939;-86
2022/08/05 10:22:38;;;;;;;;;;;;;;;19.37;57.35;101439.72;5025246;28;20389;-85
2022/08/05 10:25:14;;;;;;;;;;;;;;;19.65;56.65;101440.59;5034397;28;20367;-86
2022/08/05 10:27:41;;;;;;;;;;;;;;;20.06;54.82;101434.41;5048968;28;19935;-87
2022/08/05 10:30:27;;;;;;;;;;;;;;;20.82;53.93;101435.47;5045978;28;20352;-86
2022/08/05 10:33:14;;;;;;;;;;;;;;;20.81;52.09;101426.66;5042901;28;19932;-86
2022/08/05 10:35:41;;;;;;;;;;;;;;;20.82;51.70;101433.69;5040436;28;19931;-86
2022/08/05 10:38:11;;;;;;;;;;;;;;;20.67;51.67;101432.94;5072396;28;19925;-85
2022/08/05 10:40:42;;;;;;;;;;;;;;;20.49;53.77;101443.00;5059926;28;20389;-85
2022/08/05 10:43:19;;;;;;;;;;;;;;;20.03;51.27;101453.22;5056791;28;19972;-86
2022/08/05 10:45:58;;;;;;;;;;;;;;;19.78;50.51;101452.19;5061818;28;19924;-86
2022/08/05 10:48:32;;;;;;;;;;;;;;;19.72;50.88;101444.56;5067858;28;20290;-86
2022/08/05 10:51:19;;;;;;;;;;;;;;;19.23;50.10;101437.94;5064736;28;19925;-86
2022/08/05 10:53:55;;;;;;;;;;;;;;;20.17;51.24;101439.00;5037021;28;19925;-86
2022/08/05 10:56:35;;;;;;;;;;;;;;;20.64;48.71;101440.28;5036685;28;20071;-83
2022/08/05 10:59:04;;;;;;;;;;;;;;;20.40;49.28;101435.66;5032592;28;19925;-82
2022/08/05 11:01:43;;;;;;;;;;;;;;;20.56;50.79;101431.97;5046510;28;19934;-88
2022/08/05 11:04:28;;;;;;;;;;;;;;;20.72;49.34;101448.59;5065749;28;19929;-89
2022/08/05 11:06:59;;;;;;;;;;;;;;;19.80;49.10;101442.31;5044101;28;19924;-89
2022/08/05 11:09:35;;;;;;;;;;;;;;;19.98;51.07;101450.03;5056268;28;19931;-89
2022/08/05 11:12:30;;;;;;;;;;;;;;;20.32;51.04;101450.44;5049337;28;19974;-89
2022/08/05 11:15:08;;;;;;;;;;;;;;;20.29;50.62;101452.34;5060218;28;20422;-89
2022/08/05 11:17:53;;;;;;;;;;;;;;;20.08;49.14;101461.75;5055955;28;20370;-89
2022/08/05 11:20:42;;;;;;;;;;;;;;;20.08;48.25;101464.41;5039003;28;20364;-88
2022/08/05 11:23:28;;;;;;;;;;;;;;;20.15;47.60;101464.84;5055751;28;19936;-89
2022/08/05 11:26:22;;;;;;;;;;;;;;;19.16;51.54;101471.97;5055054;28;19920;-88
2022/08/05 11:28:59;;;;;;;;;;;;;;;19.23;52.86;101480.44;5036121;28;20327;-89
2022/08/05 11:31:37;;;;;;;;;;;;;;;18.97;52.98;101477.56;5039997;28;20066;-88
2022/08/05 11:34:37;;;;;;;;;;;;;;;19.28;53.38;101486.31;5055452;28;19933;-88
2022/08/05 11:37:04;;;;;;;;;;;;;;;19.20;53.32;101479.75;5045548;28;19925;-85
2022/08/05 11:39:52;;;;;;;;;;;;;;;19.54;53.90;101479.31;5054804;28;19925;-85
2022/08/05 11:42:30;;;;;;;;;;;;;;;20.01;53.77;101484.34;5066377;28;20286;-85
2022/08/05 11:45:01;;;;;;;;;;;;;;;20.21;52.79;101481.25;5055146;28;20349;-85
2022/08/05 11:47:32;;;;;;;;;;;;;;;20.90;52.74;101481.06;5048185;28;19951;-85
2022/08/05 11:50:15;;;;;;;;;;;;;;;20.07;48.85;101484.81;5054680;28;20122;-86
2022/08/05 11:52:42;;;;;;;;;;;;;;;20.30;49.24;101485.94;5036250;28;19933;-85
2022/08/05 11:55:14;;;;;;;;;;;;;;;20.66;48.01;101486.25;5053437;28;20011;-85
2022/08/05 11:57:44;;;;;;;;;;;;;;;20.48;48.25;101489.16;5038698;28;20509;-86
2022/08/05 12:00:31;;;;;;;;;;;;;;;20.13;49.86;101496.84;5044590;28;19928;-84
2022/08/05 12:03:20;;;;;;;;;;;;;;;20.01;48.58;101495.84;5053177;28;19925;-84
2022/08/05 12:06:02;;;;;;;;;;;;;;;20.07;50.54;101503.41;5053469;28;19925;-85
2022/08/05 12:08:45;;;;;;;;;;;;;;;19.94;51.51;101502.53;5051055;28;19925;-84
2022/08/05 12:11:21;;;;;;;;;;;;;;;19.70;52.87;101500.44;5037361;28;20321;-83
2022/08/05 12:13:53;;;;;;;;;;;;;;;19.90;53.35;101501.00;5052716;28;19931;-84
2022/08/05 12:16:25;;;;;;;;;;;;;;;20.20;51.84;101508.81;5059656;28;20373;-86
2022/08/05 12:18:54;;;;;;;;;;;;;;;20.74;52.06;101507.03;5033798;28;20518;-84
2022/08/05 12:21:31;;;;;;;;;;;;;;;20.78;50.25;101498.72;5037216;28;20359;-85
2022/08/05 12:24:05;;;;;;;;;;;;;;;20.15;50.54;101502.06;5039230;28;19991;-86
2022/08/05 12:26:59;;;;;;;;;;;;;;;20.69;51.89;101506.50;5055601;28;19924;-85
2022/08/05 12:29:35;;;;;;;;;;;;;;;20.97;49.31;101500.97;5035316;28;20011;-85
2022/08/05 12:32:05;;;;;;;;;;;;;;;20.60;49.75;101499.94;5036171;28;19947;-86
2022/08/05 12:34:36;;;;;;;;;;;;;;;20.13;52.10;101510.13;5066136;28;20509;-86
2022/08/05 12:37:10;;;;;;;;;;;;;;;20.03;51.23;101517.88;5071567;28;19937;-85
2022/08/05 12:39:56;;;;;;;;;;;;;;;20.16;52.70;101517.91;5068334;28;20370;-85
2022/08/05 12:42:35;;;;;;;;;;;;;;;20.53;52.03;101523.44;5063146;28;19994;-86
2022/08/05 12:45:04;;;;;;;;;;;;;;;20.52;50.73;101521.72;5059550;28;19951;-86
2022/08/05 12:47:35;;;;;;;;;;;;;;;21.02;49.68;101513.97;5062353;28;19994;-85
2022/08/05 12:50:16;;;;;;;;;;;;;;;21.02;51.13;101521.94;5061354;28;19978;-85
2022/08/05 12:52:55;;;;;;;;;;;;;;;20.58;49.53;101516.00;5072876;28;20029;-85
2022/08/05 12:55:26;;;;;;;;;;;;;;;20.40;48.93;101520.75;5049437;28;20371;-84
2022/08/05 12:57:58;;;;;;;;;;;;;;;20.40;48.42;101520.75;5060895;28;19924;-84
2022/08/05 13:00:45;;;;;;;;;;;;;;;20.10;49.92;101513.00;5071941;28;19939;-86
2022/08/05 13:03:38;;;;;;;;;;;;;;;20.01;51.28;101527.75;5068293;28;19928;-85
2022/08/05 13:06:12;;;;;;;;;;;;;;;19.44;53.43;101533.13;5072530;28;20039;-83
2022/08/05 13:08:39;;;;;;;;;;;;;;;19.06;52.61;101531.88;5057700;28;20015;-84
2022/08/05 13:11:16;;;;;;;;;;;;;;;18.86;56.08;101534.91;5058149;28;19987;-87
2022/08/05 13:14:08;;;;;;;;;;;;;;;19.13;53.37;101533.22;5072315;28;20405;-84
2022/08/05 13:16:44;;;;;;;;;;;;;;;19.64;49.56;101532.72;5059791;28;19931;-85